Levittown, PR

11:38 PM AST on September 02, 2015 (GMT -0400)
KP4MP DAVIS | | Change Station
CLOSE
Current Station
Personal Weather Station
Location: Sabana Seca, TOA BAJA
Elevation: 17 ft
Nearby Weather Stations

Elev 17 ft 18.44 °N, 66.18 °W | Updated 12 seconds ago

Clear
Clear
81.1 °F
Feels Like 88 °F
N
0.0
Wind Variable Wind from SW
Gusts 0.0 mph

Today
High -- | Low -- °F
--% Chance of Precip.
Yesterday
High -- | Low -- °F
Precip. -- in
6:10 AM 6:38 PM
Waning Gibbous, 74% visible
Pressure 29.99 in
Visibility 10.0 miles
Clouds Clear
Heat Index 88 °F
Dew Point 76 °F
Humidity 86%
Rainfall in
Snow Depth Not available.
UV 0 out of 12
Pollen Not available.
Air Quality Not available.
Flu Activity Not available.
METAR TJSJ 030256Z 00000KT 10SM CLR 28/24 A2999 RMK AO2 SLP154 T02780244 50004
Pressure 29.99 in
Visibility 10.0 miles
Clouds Clear
Heat Index 88 °F
Dew Point 76 °F
Humidity 86%
Rainfall in
Snow Depth Not available.
UV 0 out of 12
Pollen Not available.
Air Quality Not available.
Flu Activity Not available.
METAR TJSJ 030256Z 00000KT 10SM CLR 28/24 A2999 RMK AO2 SLP154 T02780244 50004

10-Day Weather Forecast

×

Almanac

Astronomy

Sep. 02, 2015 Rise Set
Actual Time
Civil Twilight
Nautical Twilight
Astronomical Twilight
Moon
Length of Visible Light
Length of Day
Tomorrow will be .
, % of the Moon is Illuminated

Today's Extremes

State Highs State Lows

Community

WunderPhotos

Upload Photos

1,851,902 photos uploaded!

WunderBlogs® & News

Nearby

Air Quality

  Air Quality AQ Index Pollutant
Not available.

Snow Depth

Station Depth Elevation

Earthquake Activity

City Distance Mag. Time & Date
Minimum magnitude displayed is 2.5.

Coastal Water Temperatures

Place Temperature

Stations

Nearby Weather Stations

Station Location Temp. Windchill Dew Point Humidity Wind Precip. Elev Updated Type